createdAt,value
2023-02-08T00:00:09.272Z,24.70
2023-02-08T00:00:20.071Z,26.40
2023-02-08T00:00:32.044Z,25.90
2023-02-08T00:00:44.519Z,25.00
2023-02-08T00:00:56.236Z,24.30
2023-02-08T00:01:08.741Z,24.50
2023-02-08T00:01:19.563Z,24.30
2023-02-08T00:01:31.352Z,24.60
2023-02-08T00:01:43.134Z,24.10
2023-02-08T00:01:53.924Z,24.60
2023-02-08T00:02:04.717Z,25.20
2023-02-08T00:02:16.584Z,26.40
2023-02-08T00:02:28.380Z,28.10
2023-02-08T00:02:39.234Z,30.10
2023-02-08T00:02:52.245Z,32.60
2023-02-08T00:03:03.072Z,33.20
2023-02-08T00:03:13.873Z,33.00
2023-02-08T00:03:24.700Z,32.20
2023-02-08T00:03:37.388Z,32.50
2023-02-08T00:03:48.184Z,31.70
2023-02-08T00:03:59.051Z,31.30
2023-02-08T00:04:11.219Z,30.60
2023-02-08T00:04:22.984Z,29.80
2023-02-08T00:04:33.772Z,29.70
2023-02-08T00:04:45.471Z,28.40
2023-02-08T00:04:56.262Z,27.90
2023-02-08T00:05:07.044Z,28.40
2023-02-08T00:05:18.732Z,30.30
2023-02-08T00:05:31.214Z,30.30
2023-02-08T00:05:42.941Z,30.90
2023-02-08T00:05:55.431Z,30.70
2023-02-08T00:06:08.666Z,32.60
2023-02-08T00:06:21.166Z,33.10
2023-02-08T00:06:34.406Z,31.60
2023-02-08T00:06:45.155Z,31.00
2023-02-08T00:06:55.894Z,31.40
2023-02-08T00:07:08.396Z,30.10
2023-02-08T00:07:20.123Z,29.00
2023-02-08T00:07:30.953Z,30.30
2023-02-08T00:07:42.708Z,30.90
2023-02-08T00:07:53.594Z,30.30
2023-02-08T00:08:05.600Z,30.50
2023-02-08T00:08:17.083Z,29.80
2023-02-08T00:08:30.284Z,30.00
2023-02-08T00:08:41.035Z,31.50
2023-02-08T00:08:51.827Z,32.60
2023-02-08T00:09:03.618Z,32.60
2023-02-08T00:09:14.452Z,31.30
2023-02-08T00:09:25.243Z,29.80
2023-02-08T00:09:36.063Z,29.50
2023-02-08T00:09:46.860Z,28.80
2023-02-08T00:09:59.094Z,28.80
2023-02-08T00:10:11.561Z,28.80
2023-02-08T00:10:24.284Z,28.50
2023-02-08T00:10:36.034Z,28.40
2023-02-08T00:10:48.761Z,28.70
2023-02-08T00:11:01.225Z,28.80
2023-02-08T00:11:12.997Z,29.80
2023-02-08T00:11:24.765Z,29.80
2023-02-08T00:11:37.196Z,29.60
2023-02-08T00:11:48.960Z,29.90
2023-02-08T00:12:01.455Z,30.20
2023-02-08T00:12:12.260Z,30.20
2023-02-08T00:12:23.054Z,30.50
2023-02-08T00:12:33.844Z,30.70
2023-02-08T00:12:45.588Z,30.70
2023-02-08T00:12:57.307Z,30.50
2023-02-08T00:13:09.026Z,29.70
2023-02-08T00:13:20.784Z,27.80
2023-02-08T00:13:32.576Z,28.20
2023-02-08T00:13:43.377Z,28.20
2023-02-08T00:13:54.122Z,28.60
2023-02-08T00:14:04.883Z,28.30
2023-02-08T00:14:15.693Z,28.10
2023-02-08T00:14:26.515Z,28.50
2023-02-08T00:14:38.214Z,28.50
2023-02-08T00:14:49.003Z,29.60
2023-02-08T00:15:02.696Z,30.10
2023-02-08T00:15:13.465Z,29.70
2023-02-08T00:15:25.242Z,29.60
2023-02-08T00:15:36.079Z,29.40
2023-02-08T00:15:47.880Z,29.10
2023-02-08T00:16:00.920Z,28.30
2023-02-08T00:16:13.766Z,28.40
2023-02-08T00:16:24.606Z,29.00
2023-02-08T00:16:37.065Z,29.60
2023-02-08T00:16:50.067Z,29.30
2023-02-08T00:17:02.581Z,28.30
2023-02-08T00:17:14.370Z,28.10
2023-02-08T00:17:25.154Z,28.70
2023-02-08T00:17:37.637Z,29.20
2023-02-08T00:17:49.407Z,28.70
2023-02-08T00:18:00.210Z,28.30
2023-02-08T00:18:11.936Z,28.50
2023-02-08T00:18:24.397Z,29.00
2023-02-08T00:18:35.320Z,27.60
2023-02-08T00:18:47.106Z,27.00
2023-02-08T00:18:58.862Z,27.00
2023-02-08T00:19:09.706Z,27.50
2023-02-08T00:19:20.435Z,29.10
2023-02-08T00:19:33.353Z,29.70
2023-02-08T00:19:44.145Z,29.40
2023-02-08T00:19:54.913Z,29.30
2023-02-08T00:20:05.647Z,28.80
2023-02-08T00:20:18.867Z,28.20
2023-02-08T00:20:31.366Z,27.10
2023-02-08T00:20:42.560Z,26.80
2023-02-08T00:20:55.116Z,27.40
2023-02-08T00:21:05.895Z,28.00
2023-02-08T00:21:18.874Z,27.30
2023-02-08T00:21:31.336Z,26.10
2023-02-08T00:21:43.791Z,27.50
2023-02-08T00:21:55.765Z,27.50
2023-02-08T00:22:09.476Z,27.40
2023-02-08T00:22:20.262Z,29.10
2023-02-08T00:22:32.009Z,29.50
2023-02-08T00:22:42.795Z,28.90
2023-02-08T00:22:53.617Z,28.60
2023-02-08T00:23:05.340Z,28.20
2023-02-08T00:23:17.106Z,27.30
2023-02-08T00:23:29.839Z,28.10
2023-02-08T00:23:40.608Z,28.60
2023-02-08T00:23:51.376Z,29.40
2023-02-08T00:24:03.849Z,30.00
2023-02-08T00:24:14.669Z,30.10
2023-02-08T00:24:25.446Z,29.20
2023-02-08T00:24:36.224Z,29.60
2023-02-08T00:24:48.693Z,28.50
2023-02-08T00:25:00.663Z,28.10
2023-02-08T00:25:11.426Z,27.90
2023-02-08T00:25:23.944Z,29.70
2023-02-08T00:25:37.180Z,29.30
2023-02-08T00:25:47.913Z,27.90
2023-02-08T00:26:00.396Z,28.00
2023-02-08T00:26:12.341Z,28.30
2023-02-08T00:26:24.054Z,29.20
2023-02-08T00:26:34.817Z,28.70
2023-02-08T00:26:47.254Z,28.50
2023-02-08T00:27:01.101Z,28.30
2023-02-08T00:27:13.080Z,28.10
2023-02-08T00:27:24.818Z,27.50
2023-02-08T00:27:37.316Z,27.20
2023-02-08T00:27:48.177Z,27.50
2023-02-08T00:27:59.025Z,28.70
2023-02-08T00:28:09.826Z,28.40
2023-02-08T00:28:22.316Z,27.80
2023-02-08T00:28:33.157Z,27.70
2023-02-08T00:28:43.970Z,28.00
2023-02-08T00:28:56.424Z,28.80
2023-02-08T00:29:08.259Z,29.20
2023-02-08T00:29:21.225Z,29.10
2023-02-08T00:29:33.465Z,28.70
2023-02-08T00:29:44.258Z,28.80
2023-02-08T00:29:55.016Z,28.70
2023-02-08T00:30:05.785Z,27.90
2023-02-08T00:30:17.534Z,27.80
2023-02-08T00:30:28.306Z,28.10
2023-02-08T00:30:39.575Z,28.50
2023-02-08T00:30:52.561Z,29.10
2023-02-08T00:31:05.187Z,29.50
2023-02-08T00:31:16.175Z,29.50
2023-02-08T00:31:29.506Z,29.10
2023-02-08T00:31:41.370Z,28.70
2023-02-08T00:31:52.178Z,29.60
2023-02-08T00:32:05.210Z,29.50
2023-02-08T00:32:16.953Z,29.90
2023-02-08T00:32:29.423Z,30.60
2023-02-08T00:32:41.217Z,30.60
2023-02-08T00:32:53.680Z,29.30
2023-02-08T00:33:04.482Z,27.90
2023-02-08T00:33:16.934Z,28.00
2023-02-08T00:33:28.725Z,29.00
2023-02-08T00:33:40.493Z,28.10
2023-02-08T00:33:51.249Z,26.70
2023-02-08T00:34:02.058Z,26.90
2023-02-08T00:34:14.534Z,27.30
2023-02-08T00:34:25.366Z,28.00
2023-02-08T00:34:36.135Z,27.90
2023-02-08T00:34:46.943Z,29.00
2023-02-08T00:34:59.172Z,28.80
2023-02-08T00:35:11.933Z,28.20
2023-02-08T00:35:26.083Z,27.50
2023-02-08T00:35:36.845Z,27.70
2023-02-08T00:35:49.095Z,27.40
2023-02-08T00:36:02.815Z,27.90
2023-02-08T00:36:13.591Z,28.80
2023-02-08T00:36:25.303Z,28.10
2023-02-08T00:36:36.054Z,27.90
2023-02-08T00:36:46.805Z,28.40
2023-02-08T00:36:57.583Z,30.20
2023-02-08T00:37:11.319Z,31.50
2023-02-08T00:37:23.537Z,31.10
2023-02-08T00:37:36.279Z,30.90
2023-02-08T00:37:48.007Z,30.80
2023-02-08T00:37:58.813Z,30.40
2023-02-08T00:38:09.655Z,33.10
2023-02-08T00:38:21.429Z,33.90
2023-02-08T00:38:32.205Z,34.30
2023-02-08T00:38:43.952Z,32.30
2023-02-08T00:38:54.693Z,32.20
2023-02-08T00:39:06.900Z,33.20
2023-02-08T00:39:17.704Z,32.80
2023-02-08T00:39:30.192Z,33.00
2023-02-08T00:39:42.681Z,32.90
2023-02-08T00:39:53.464Z,33.50
2023-02-08T00:40:06.672Z,34.40
2023-02-08T00:40:18.412Z,34.30
2023-02-08T00:40:29.161Z,35.60
2023-02-08T00:40:40.158Z,35.20
2023-02-08T00:40:52.778Z,34.60
2023-02-08T00:41:04.515Z,33.40
2023-02-08T00:41:16.714Z,32.20
2023-02-08T00:41:29.461Z,32.10
2023-02-08T00:41:41.220Z,32.90
2023-02-08T00:41:53.747Z,31.70
2023-02-08T00:42:06.193Z,30.80
2023-02-08T00:42:16.929Z,31.90
2023-02-08T00:42:27.689Z,32.70
2023-02-08T00:42:39.449Z,32.00
2023-02-08T00:42:51.241Z,32.50
2023-02-08T00:43:03.442Z,32.30
2023-02-08T00:43:14.192Z,32.90
2023-02-08T00:43:27.415Z,32.30
2023-02-08T00:43:38.226Z,31.50
2023-02-08T00:43:49.971Z,31.80
2023-02-08T00:44:02.161Z,31.60
2023-02-08T00:44:14.613Z,31.30
2023-02-08T00:44:25.384Z,30.00
2023-02-08T00:44:37.802Z,29.80
2023-02-08T00:44:50.518Z,29.90
2023-02-08T00:45:02.271Z,30.20
2023-02-08T00:45:14.498Z,32.30
2023-02-08T00:45:26.771Z,30.90
2023-02-08T00:45:39.517Z,30.40
2023-02-08T00:45:52.229Z,30.00
2023-02-08T00:46:03.011Z,31.00
2023-02-08T00:46:13.821Z,30.80
2023-02-08T00:46:26.268Z,31.00
2023-02-08T00:46:37.071Z,30.20
2023-02-08T00:46:49.696Z,30.40
2023-02-08T00:47:01.901Z,29.70
2023-02-08T00:47:12.716Z,29.80
2023-02-08T00:47:23.468Z,29.60
2023-02-08T00:47:35.211Z,29.60
2023-02-08T00:47:47.722Z,28.90
2023-02-08T00:47:59.492Z,29.60
2023-02-08T00:48:10.275Z,28.50
2023-02-08T00:48:21.060Z,27.70
2023-02-08T00:48:33.519Z,26.40
2023-02-08T00:48:45.291Z,25.20
2023-02-08T00:48:57.027Z,24.90
2023-02-08T00:49:07.792Z,25.10
2023-02-08T00:49:18.579Z,25.70
2023-02-08T00:49:33.316Z,25.70
2023-02-08T00:49:44.074Z,25.80
2023-02-08T00:49:57.327Z,26.50
2023-02-08T00:50:09.342Z,25.80
2023-02-08T00:50:20.223Z,25.40
2023-02-08T00:50:32.725Z,25.50
2023-02-08T00:50:44.451Z,25.80
2023-02-08T00:50:55.195Z,25.70
2023-02-08T00:51:05.942Z,26.00
2023-02-08T00:51:18.447Z,24.90
2023-02-08T00:51:30.209Z,24.00
2023-02-08T00:51:40.942Z,24.40
2023-02-08T00:51:53.383Z,24.40
2023-02-08T00:52:05.136Z,24.50
2023-02-08T00:52:15.911Z,25.20
2023-02-08T00:52:29.130Z,25.00
2023-02-08T00:52:40.004Z,24.30
2023-02-08T00:52:52.451Z,25.60
2023-02-08T00:53:03.225Z,26.20
2023-02-08T00:53:14.970Z,25.50
2023-02-08T00:53:25.751Z,25.10
2023-02-08T00:53:36.579Z,24.90
2023-02-08T00:53:48.430Z,25.30
2023-02-08T00:54:00.335Z,25.60
2023-02-08T00:54:11.090Z,24.40
2023-02-08T00:54:21.876Z,25.10
2023-02-08T00:54:32.663Z,24.20
2023-02-08T00:54:43.458Z,24.60
2023-02-08T00:54:55.134Z,25.00
2023-02-08T00:55:06.842Z,25.20
2023-02-08T00:55:17.648Z,25.20
2023-02-08T00:55:29.356Z,24.10
2023-02-08T00:55:40.113Z,23.90
2023-02-08T00:55:51.831Z,23.00
2023-02-08T00:56:05.110Z,23.30
2023-02-08T00:56:18.084Z,23.60
2023-02-08T00:56:30.573Z,25.10
2023-02-08T00:56:41.335Z,25.40
2023-02-08T00:56:54.284Z,24.40
2023-02-08T00:57:07.494Z,24.60
2023-02-08T00:57:19.929Z,25.80
2023-02-08T00:57:30.685Z,25.90
2023-02-08T00:57:41.444Z,26.20
2023-02-08T00:57:52.221Z,25.30
2023-02-08T00:58:04.966Z,25.10
2023-02-08T00:58:18.201Z,24.90
2023-02-08T00:58:29.026Z,25.30
2023-02-08T00:58:39.820Z,25.00
2023-02-08T00:58:50.642Z,25.40
2023-02-08T00:59:04.372Z,25.50
2023-02-08T00:59:16.112Z,26.40
2023-02-08T00:59:29.032Z,26.00
2023-02-08T00:59:40.757Z,25.60
2023-02-08T00:59:53.006Z,25.60
2023-02-08T01:00:06.243Z,26.50
2023-02-08T01:00:17.053Z,26.60
2023-02-08T01:00:27.879Z,25.60
2023-02-08T01:00:39.970Z,25.60
2023-02-08T01:00:51.944Z,25.10
2023-02-08T01:01:02.818Z,24.80
2023-02-08T01:01:14.663Z,26.00
2023-02-08T01:01:25.513Z,25.20
2023-02-08T01:01:36.374Z,24.70
2023-02-08T01:01:47.196Z,23.70
2023-02-08T01:01:59.179Z,23.80
2023-02-08T01:02:10.987Z,23.80
2023-02-08T01:02:23.218Z,24.30
2023-02-08T01:02:33.982Z,24.80
2023-02-08T01:02:45.747Z,25.40
2023-02-08T01:02:56.542Z,24.50
2023-02-08T01:03:08.306Z,24.40
2023-02-08T01:03:19.101Z,24.40
2023-02-08T01:03:31.600Z,24.60
2023-02-08T01:03:44.466Z,24.90
2023-02-08T01:03:57.001Z,24.20
2023-02-08T01:04:09.514Z,22.70
2023-02-08T01:04:21.558Z,23.30
2023-02-08T01:04:33.313Z,23.30
2023-02-08T01:04:45.157Z,24.70
2023-02-08T01:04:56.005Z,24.10
2023-02-08T01:05:07.768Z,23.50
2023-02-08T01:05:19.566Z,21.80
2023-02-08T01:05:31.833Z,21.60
2023-02-08T01:05:43.554Z,22.20
2023-02-08T01:05:54.336Z,22.30
2023-02-08T01:06:06.095Z,21.60
2023-02-08T01:06:16.885Z,22.30
2023-02-08T01:06:29.416Z,22.50
2023-02-08T01:06:41.676Z,22.50
2023-02-08T01:06:53.465Z,22.90
2023-02-08T01:07:04.290Z,23.70
2023-02-08T01:07:15.157Z,23.10
2023-02-08T01:07:26.004Z,23.20
2023-02-08T01:07:37.778Z,23.10
2023-02-08T01:07:50.281Z,23.10
2023-02-08T01:08:01.052Z,23.10
2023-02-08T01:08:12.785Z,23.10
2023-02-08T01:08:23.630Z,23.00
2023-02-08T01:08:34.366Z,22.20
2023-02-08T01:08:46.352Z,23.20
2023-02-08T01:08:57.128Z,23.00
2023-02-08T01:09:07.935Z,22.60
2023-02-08T01:09:19.698Z,21.20
2023-02-08T01:09:30.483Z,20.20
2023-02-08T01:09:42.987Z,21.20
2023-02-08T01:09:54.774Z,22.70
2023-02-08T01:10:06.498Z,23.30
2023-02-08T01:10:18.237Z,22.00
2023-02-08T01:10:29.045Z,22.20
2023-02-08T01:10:40.177Z,22.60
2023-02-08T01:10:52.114Z,22.50
2023-02-08T01:11:04.617Z,22.90
2023-02-08T01:11:15.416Z,23.00
2023-02-08T01:11:26.198Z,22.80
2023-02-08T01:11:38.893Z,21.90
2023-02-08T01:11:51.384Z,20.60
2023-02-08T01:12:02.206Z,21.60
2023-02-08T01:12:13.257Z,22.20
2023-02-08T01:12:24.076Z,22.40
2023-02-08T01:12:34.835Z,22.80
2023-02-08T01:12:46.514Z,22.70
2023-02-08T01:12:58.774Z,21.90
2023-02-08T01:13:09.564Z,21.40
2023-02-08T01:13:21.327Z,21.30
2023-02-08T01:13:32.106Z,22.40
2023-02-08T01:13:42.904Z,21.80
2023-02-08T01:13:53.687Z,22.50
2023-02-08T01:14:04.465Z,22.40
2023-02-08T01:14:16.205Z,21.70
2023-02-08T01:14:26.948Z,21.90
2023-02-08T01:14:39.469Z,22.00
2023-02-08T01:14:51.717Z,22.20
2023-02-08T01:15:03.494Z,22.50
2023-02-08T01:15:15.988Z,23.40
2023-02-08T01:15:28.555Z,23.30
2023-02-08T01:15:39.398Z,22.90
2023-02-08T01:15:51.193Z,23.00
2023-02-08T01:16:02.998Z,24.10
2023-02-08T01:16:14.802Z,24.40
2023-02-08T01:16:25.753Z,24.80
2023-02-08T01:16:36.578Z,23.70
2023-02-08T01:16:47.394Z,23.30
2023-02-08T01:16:59.135Z,22.10
2023-02-08T01:17:12.365Z,23.10
2023-02-08T01:17:24.163Z,23.60
2023-02-08T01:17:34.947Z,23.70
2023-02-08T01:17:45.714Z,23.80
2023-02-08T01:17:56.687Z,24.30
2023-02-08T01:18:07.497Z,24.40
2023-02-08T01:18:18.309Z,25.20
2023-02-08T01:18:29.116Z,25.30
2023-02-08T01:18:39.855Z,25.00
2023-02-08T01:18:52.811Z,24.90
2023-02-08T01:19:03.647Z,25.10
2023-02-08T01:19:14.418Z,24.00
2023-02-08T01:19:25.204Z,24.20
2023-02-08T01:19:35.976Z,23.70
2023-02-08T01:19:46.736Z,25.00
2023-02-08T01:19:57.476Z,24.30
2023-02-08T01:20:11.223Z,23.90
2023-02-08T01:20:22.180Z,23.90
2023-02-08T01:20:32.989Z,24.30
2023-02-08T01:20:43.788Z,24.30
2023-02-08T01:20:54.534Z,23.90
2023-02-08T01:21:07.275Z,24.00
2023-02-08T01:21:19.279Z,23.70
2023-02-08T01:21:30.015Z,23.90
2023-02-08T01:21:40.936Z,24.10
2023-02-08T01:21:51.710Z,23.90
2023-02-08T01:22:04.198Z,24.30
2023-02-08T01:22:14.973Z,25.00
2023-02-08T01:22:25.769Z,24.80
2023-02-08T01:22:36.565Z,24.60
2023-02-08T01:22:47.361Z,24.30
2023-02-08T01:22:58.174Z,24.40
2023-02-08T01:23:11.939Z,24.60
2023-02-08T01:23:24.400Z,24.10
2023-02-08T01:23:35.197Z,23.90
2023-02-08T01:23:46.931Z,23.80
2023-02-08T01:23:59.169Z,24.20
2023-02-08T01:24:10.936Z,23.60
2023-02-08T01:24:23.170Z,24.10
2023-02-08T01:24:34.927Z,22.90
2023-02-08T01:24:45.678Z,22.70
2023-02-08T01:24:57.411Z,22.50
2023-02-08T01:25:10.148Z,22.60
2023-02-08T01:25:23.399Z,22.30
2023-02-08T01:25:36.657Z,23.00
2023-02-08T01:25:49.948Z,23.20
2023-02-08T01:26:02.449Z,23.70
2023-02-08T01:26:15.724Z,23.90
2023-02-08T01:26:28.216Z,24.00
2023-02-08T01:26:39.932Z,24.70
2023-02-08T01:26:50.696Z,24.30
2023-02-08T01:27:03.155Z,23.10
2023-02-08T01:27:15.657Z,22.40
2023-02-08T01:27:26.446Z,22.90
2023-02-08T01:27:38.664Z,23.30
2023-02-08T01:27:51.177Z,24.60
2023-02-08T01:28:03.459Z,25.00
2023-02-08T01:28:14.252Z,23.80
2023-02-08T01:28:27.395Z,22.50
2023-02-08T01:28:39.937Z,23.10
2023-02-08T01:28:52.447Z,23.30
2023-02-08T01:29:04.928Z,23.20
2023-02-08T01:29:17.386Z,23.90
2023-02-08T01:29:30.108Z,23.70
2023-02-08T01:29:41.911Z,23.10
2023-02-08T01:29:53.660Z,23.10
2023-02-08T01:30:06.169Z,22.20
2023-02-08T01:30:16.967Z,22.60
2023-02-08T01:30:27.774Z,22.20
2023-02-08T01:30:40.682Z,22.00
2023-02-08T01:30:52.788Z,21.90
2023-02-08T01:31:06.029Z,22.40
2023-02-08T01:31:16.914Z,22.90
2023-02-08T01:31:27.730Z,22.90
2023-02-08T01:31:40.294Z,22.40
2023-02-08T01:31:52.771Z,21.70
2023-02-08T01:32:04.517Z,22.20
2023-02-08T01:32:15.323Z,22.90
2023-02-08T01:32:28.027Z,23.10
2023-02-08T01:32:39.995Z,22.70
2023-02-08T01:32:50.788Z,22.60
2023-02-08T01:33:02.541Z,22.60
2023-02-08T01:33:13.357Z,22.80
2023-02-08T01:33:26.346Z,21.90
2023-02-08T01:33:37.158Z,22.30
2023-02-08T01:33:48.006Z,23.00
2023-02-08T01:33:58.782Z,23.70
2023-02-08T01:34:10.679Z,23.70
2023-02-08T01:34:21.469Z,24.10
2023-02-08T01:34:33.961Z,24.20
2023-02-08T01:34:44.777Z,23.80
2023-02-08T01:34:55.535Z,24.40
2023-02-08T01:35:06.320Z,24.20
2023-02-08T01:35:17.077Z,24.50
2023-02-08T01:35:27.839Z,24.10
2023-02-08T01:35:41.322Z,24.00
2023-02-08T01:35:52.153Z,23.10
2023-02-08T01:36:02.929Z,23.70
2023-02-08T01:36:13.890Z,24.20
2023-02-08T01:36:25.680Z,23.90
2023-02-08T01:36:39.921Z,24.20
2023-02-08T01:36:51.727Z,24.00
2023-02-08T01:37:02.535Z,24.00
2023-02-08T01:37:14.986Z,24.30
2023-02-08T01:37:25.775Z,23.90
2023-02-08T01:37:36.563Z,24.20
2023-02-08T01:37:47.338Z,23.50
2023-02-08T01:37:59.098Z,23.80
2023-02-08T01:38:09.839Z,24.00
2023-02-08T01:38:21.571Z,23.80
2023-02-08T01:38:33.307Z,23.60
2023-02-08T01:38:44.129Z,23.20
2023-02-08T01:38:55.857Z,23.20
2023-02-08T01:39:07.611Z,23.40
2023-02-08T01:39:18.429Z,23.20
2023-02-08T01:39:29.206Z,22.90
2023-02-08T01:39:39.978Z,24.20
2023-02-08T01:39:51.738Z,24.00
2023-02-08T01:40:03.503Z,24.40
2023-02-08T01:40:15.261Z,24.10
2023-02-08T01:40:26.040Z,23.80
2023-02-08T01:40:36.858Z,23.50
2023-02-08T01:40:47.650Z,23.30
2023-02-08T01:40:58.438Z,23.70
2023-02-08T01:41:10.173Z,23.10
2023-02-08T01:41:21.919Z,23.40
2023-02-08T01:41:34.347Z,23.90
2023-02-08T01:41:45.198Z,23.50
2023-02-08T01:41:55.973Z,23.00
2023-02-08T01:42:07.679Z,23.60
2023-02-08T01:42:19.423Z,24.30
2023-02-08T01:42:31.847Z,23.90
2023-02-08T01:42:44.296Z,23.50
2023-02-08T01:42:57.052Z,23.70
2023-02-08T01:43:08.661Z,24.10
2023-02-08T01:43:20.517Z,23.50
2023-02-08T01:43:31.309Z,23.00
2023-02-08T01:43:42.087Z,23.40
2023-02-08T01:43:52.902Z,23.40
2023-02-08T01:44:03.745Z,24.90
2023-02-08T01:44:16.710Z,25.20
2023-02-08T01:44:27.560Z,24.90
2023-02-08T01:44:40.008Z,24.90
2023-02-08T01:44:52.488Z,24.60
2023-02-08T01:45:03.293Z,25.40
2023-02-08T01:45:14.045Z,24.70
2023-02-08T01:45:27.283Z,24.20
2023-02-08T01:45:39.752Z,23.70
2023-02-08T01:45:52.064Z,23.50
2023-02-08T01:46:03.871Z,24.80
2023-02-08T01:46:16.807Z,25.10
2023-02-08T01:46:30.055Z,25.30
2023-02-08T01:46:40.871Z,24.70
2023-02-08T01:46:53.354Z,25.30
2023-02-08T01:47:04.163Z,24.80
2023-02-08T01:47:14.909Z,24.60
2023-02-08T01:47:29.097Z,24.90
2023-02-08T01:47:39.916Z,23.80
2023-02-08T01:47:54.436Z,23.80
2023-02-08T01:48:06.147Z,25.20
2023-02-08T01:48:16.980Z,25.00
2023-02-08T01:48:29.221Z,24.90
2023-02-08T01:48:40.926Z,24.80
2023-02-08T01:48:53.393Z,24.60
2023-02-08T01:49:05.621Z,24.40
2023-02-08T01:49:16.375Z,24.40
2023-02-08T01:49:28.087Z,24.30
2023-02-08T01:49:38.892Z,24.80
2023-02-08T01:49:50.619Z,24.50
2023-02-08T01:50:03.861Z,24.00
2023-02-08T01:50:14.669Z,24.30
2023-02-08T01:50:25.400Z,24.80
2023-02-08T01:50:37.158Z,24.60
2023-02-08T01:50:51.380Z,24.00
2023-02-08T01:51:02.145Z,23.80
2023-02-08T01:51:12.942Z,23.70
2023-02-08T01:51:25.427Z,24.60
2023-02-08T01:51:37.875Z,24.30
2023-02-08T01:51:48.629Z,24.70
2023-02-08T01:52:01.078Z,24.60
2023-02-08T01:52:13.519Z,24.50
2023-02-08T01:52:26.104Z,24.20
2023-02-08T01:52:39.328Z,23.80
2023-02-08T01:52:53.057Z,24.40
2023-02-08T01:53:05.817Z,24.40
2023-02-08T01:53:17.557Z,23.70
2023-02-08T01:53:29.800Z,24.20
2023-02-08T01:53:41.526Z,24.30
2023-02-08T01:53:52.320Z,23.70
2023-02-08T01:54:04.780Z,23.50
2023-02-08T01:54:15.550Z,25.00
2023-02-08T01:54:28.013Z,25.60
2023-02-08T01:54:38.801Z,25.50
2023-02-08T01:54:52.023Z,24.80
2023-02-08T01:55:03.802Z,24.70
2023-02-08T01:55:17.031Z,24.70
2023-02-08T01:55:28.131Z,25.10
2023-02-08T01:55:38.981Z,24.60
2023-02-08T01:55:49.900Z,24.70
2023-02-08T01:56:01.647Z,24.30
2023-02-08T01:56:13.888Z,23.60
2023-02-08T01:56:25.640Z,24.00
2023-02-08T01:56:39.195Z,23.50
2023-02-08T01:56:52.387Z,23.70
2023-02-08T01:57:05.605Z,23.00
2023-02-08T01:57:16.433Z,23.00
2023-02-08T01:57:28.191Z,22.60
2023-02-08T01:57:38.987Z,22.80
2023-02-08T01:57:49.719Z,22.90
2023-02-08T01:58:00.592Z,23.30
2023-02-08T01:58:12.368Z,23.00
2023-02-08T01:58:24.139Z,23.90
2023-02-08T01:58:35.880Z,24.00
2023-02-08T01:58:47.860Z,24.10
2023-02-08T01:58:59.580Z,23.40
2023-02-08T01:59:11.328Z,22.60
2023-02-08T01:59:22.129Z,22.40
2023-02-08T01:59:34.572Z,22.50
2023-02-08T01:59:47.057Z,23.10
2023-02-08T01:59:57.839Z,22.70
2023-02-08T02:00:08.694Z,22.80
2023-02-08T02:00:19.512Z,22.90
2023-02-08T02:00:30.288Z,23.30
2023-02-08T02:00:43.045Z,22.30
2023-02-08T02:00:53.993Z,21.90
2023-02-08T02:01:04.802Z,22.00
2023-02-08T02:01:15.660Z,21.60
2023-02-08T02:01:26.489Z,22.20
2023-02-08T02:01:39.019Z,21.70
2023-02-08T02:01:50.790Z,21.50
2023-02-08T02:02:01.614Z,20.90
2023-02-08T02:02:12.435Z,21.00
2023-02-08T02:02:24.260Z,21.90
2023-02-08T02:02:35.028Z,22.10
2023-02-08T02:02:45.831Z,22.80
2023-02-08T02:02:57.601Z,22.20
2023-02-08T02:03:09.131Z,23.00
2023-02-08T02:03:20.880Z,22.30
2023-02-08T02:03:31.772Z,22.40
2023-02-08T02:03:42.570Z,22.30
2023-02-08T02:03:54.311Z,22.90
2023-02-08T02:04:06.068Z,22.80
2023-02-08T02:04:18.564Z,22.40
2023-02-08T02:04:29.349Z,21.80
2023-02-08T02:04:41.818Z,21.80
2023-02-08T02:04:54.349Z,21.70
2023-02-08T02:05:05.142Z,21.30
2023-02-08T02:05:15.930Z,20.80
2023-02-08T02:05:26.749Z,21.60
2023-02-08T02:05:37.522Z,21.40
2023-02-08T02:05:50.048Z,21.80
2023-02-08T02:06:02.572Z,22.40
2023-02-08T02:06:15.798Z,23.10
2023-02-08T02:06:28.301Z,22.80
2023-02-08T02:06:40.102Z,22.40
2023-02-08T02:06:52.079Z,22.50
2023-02-08T02:07:05.285Z,22.30
2023-02-08T02:07:17.548Z,22.10
2023-02-08T02:07:29.302Z,21.90
2023-02-08T02:07:40.101Z,22.00
2023-02-08T02:07:51.884Z,21.70
2023-02-08T02:08:34.694Z,0.00
2023-02-08T02:08:46.944Z,22.20
2023-02-08T02:08:59.464Z,23.10
2023-02-08T02:09:10.335Z,23.30
2023-02-08T02:09:21.146Z,23.40
2023-02-08T02:09:32.899Z,23.60
2023-02-08T02:09:44.703Z,23.90
2023-02-08T02:09:56.444Z,23.20
2023-02-08T02:10:07.254Z,22.10
2023-02-08T02:10:18.025Z,22.30
2023-02-08T02:10:30.471Z,22.40
2023-02-08T02:10:41.631Z,23.20
2023-02-08T02:10:54.246Z,23.80
2023-02-08T02:11:05.050Z,24.00
2023-02-08T02:11:17.557Z,23.10
2023-02-08T02:11:29.994Z,23.00
2023-02-08T02:11:40.768Z,22.70
2023-02-08T02:11:53.052Z,22.90
2023-02-08T02:12:03.793Z,23.80
2023-02-08T02:12:15.546Z,24.40
2023-02-08T02:12:26.339Z,25.20
2023-02-08T02:12:38.809Z,24.40
2023-02-08T02:12:49.606Z,23.90
2023-02-08T02:13:01.349Z,23.40
2023-02-08T02:13:14.133Z,24.00
2023-02-08T02:13:27.099Z,23.90
2023-02-08T02:13:40.337Z,24.40
2023-02-08T02:13:52.102Z,24.90
2023-02-08T02:14:03.875Z,24.60
2023-02-08T02:14:14.665Z,23.10
2023-02-08T02:14:26.449Z,23.00
2023-02-08T02:14:38.953Z,24.80
2023-02-08T02:14:51.432Z,24.40
2023-02-08T02:15:03.914Z,24.30
2023-02-08T02:15:17.157Z,23.90
2023-02-08T02:15:29.404Z,24.20
2023-02-08T02:15:40.165Z,23.60
2023-02-08T02:15:52.918Z,23.00
2023-02-08T02:16:04.744Z,22.90
2023-02-08T02:16:15.595Z,23.40
2023-02-08T02:16:27.398Z,23.70
2023-02-08T02:16:39.980Z,24.00
2023-02-08T02:16:52.330Z,24.10
2023-02-08T02:17:04.984Z,24.60
2023-02-08T02:17:15.777Z,23.80
2023-02-08T02:17:27.607Z,23.40
2023-02-08T02:17:38.426Z,23.70
2023-02-08T02:17:50.234Z,23.60
2023-02-08T02:18:02.017Z,23.40
2023-02-08T02:18:12.859Z,22.80
2023-02-08T02:18:23.676Z,22.60
2023-02-08T02:18:35.430Z,23.20
2023-02-08T02:18:47.169Z,23.40
2023-02-08T02:18:58.019Z,23.20
2023-02-08T02:19:10.488Z,23.40
2023-02-08T02:19:22.259Z,23.90
2023-02-08T02:19:34.533Z,24.50
2023-02-08T02:19:45.367Z,24.20
2023-02-08T02:19:57.906Z,24.90
2023-02-08T02:20:09.659Z,24.20
2023-02-08T02:20:20.458Z,22.90
2023-02-08T02:20:31.284Z,22.60
2023-02-08T02:20:42.457Z,22.30
2023-02-08T02:20:53.454Z,22.10
2023-02-08T02:21:04.218Z,22.30
2023-02-08T02:21:17.374Z,22.00
2023-02-08T02:21:28.181Z,22.50
2023-02-08T02:21:39.007Z,23.40
2023-02-08T02:21:50.838Z,23.20
2023-02-08T02:22:01.924Z,22.70
2023-02-08T02:22:15.046Z,22.20
2023-02-08T02:22:25.853Z,22.40
2023-02-08T02:22:36.717Z,22.30
2023-02-08T02:22:47.538Z,22.10
2023-02-08T02:23:00.007Z,22.50
2023-02-08T02:23:11.799Z,22.00
2023-02-08T02:23:22.587Z,21.10
2023-02-08T02:23:34.397Z,22.40
2023-02-08T02:23:46.648Z,22.80
2023-02-08T02:23:59.129Z,23.20
2023-02-08T02:24:09.925Z,23.10
2023-02-08T02:24:20.738Z,23.80
2023-02-08T02:24:32.540Z,23.50
2023-02-08T02:24:45.013Z,22.80
2023-02-08T02:24:56.771Z,22.40
2023-02-08T02:25:07.570Z,22.40
2023-02-08T02:25:18.385Z,22.90
2023-02-08T02:25:29.194Z,22.50
2023-02-08T02:25:41.639Z,22.30
2023-02-08T02:25:54.201Z,22.80
2023-02-08T02:26:06.699Z,22.60
2023-02-08T02:26:19.211Z,22.10
2023-02-08T02:26:31.023Z,22.20
2023-02-08T02:26:42.767Z,22.50
2023-02-08T02:26:55.497Z,22.50
2023-02-08T02:27:06.375Z,22.90
2023-02-08T02:27:18.865Z,22.10
2023-02-08T02:27:30.638Z,22.30
2023-02-08T02:27:41.459Z,21.50
2023-02-08T02:27:55.185Z,21.40
2023-02-08T02:28:07.411Z,21.60
2023-02-08T02:28:18.280Z,22.20
2023-02-08T02:28:30.011Z,23.40
2023-02-08T02:28:40.786Z,23.20
2023-02-08T02:28:52.506Z,23.20
2023-02-08T02:29:04.299Z,22.60
2023-02-08T02:29:16.316Z,22.60
2023-02-08T02:29:28.745Z,23.10
2023-02-08T02:29:40.499Z,22.70
2023-02-08T02:29:52.495Z,22.10
2023-02-08T02:30:04.240Z,22.80
2023-02-08T02:30:16.030Z,22.80
2023-02-08T02:30:28.540Z,22.10
2023-02-08T02:30:40.641Z,22.10
2023-02-08T02:30:52.586Z,23.40
2023-02-08T02:31:03.456Z,23.90